^^
Station Historical Data
Daily Summary for January 31, 2018 Units:  Metric    English   Both
« Previous Day
Next Day »
Daily Weekly Monthly Yearly Custom
  High: Low: Average:
Temperature: -17.8 °C 15.9 °C 20.1 °C
Dew Point: -17.8 °C 1.2 °C 11.6 °C
Humidity: Humidity% 14% 63%
Wind Speed: 0km/h 0km/h 15.8km/h
Wind Gust: 0km/h - -
Wind- - SSW
Pressure: 0 hPa 1002.3 hPa -
Precipitation: 0 mm    
Historical Graphs
 
 
Tabular Data for January 31, 2018
Time Temperature Dew Point Pressure Wind Wind Speed Wind Gust Humidity Rainfall Rate (Hourly) solar Conditions
-17.8 °C -17.8 °C 0 hPa Calm     Humidity% 0 mm SolarRadiationWatts/m^2 W/m2 Conditions
00:06 19.4 °C 12.9 °C 1007.3 hPa SSW 16.3 km/h 22.5 km/h 66% 0 mm 0.0 W/m2
00:11 19.3 °C 12.8 °C 1007.7 hPa South 19.5 km/h 19.5 km/h 66% 0 mm 0.0 W/m2
00:16 19.2 °C 12.9 °C 1007.7 hPa SSW 16.3 km/h 24.1 km/h 67% 0 mm 0.0 W/m2
00:21 19.1 °C 12.8 °C 1007.7 hPa SSW 14.3 km/h 19.3 km/h 67% 0 mm 0.0 W/m2
00:31 18.8 °C 13 °C 1007.7 hPa South 14.3 km/h 19.3 km/h 69% 0 mm 0.0 W/m2
00:36 18.7 °C 12.9 °C 1007.3 hPa SSW 17.7 km/h 17.7 km/h 69% 0 mm 0.0 W/m2
00:41 18.7 °C 13.1 °C 1007.3 hPa South 11.1 km/h 24.1 km/h 70% 0 mm 0.0 W/m2
00:51 18.6 °C 13 °C 1007.3 hPa South 11.1 km/h 22.5 km/h 70% 0 mm 0.0 W/m2
00:56 18.5 °C 13.1 °C 1007.3 hPa SSW 14.3 km/h 17.7 km/h 71% 0 mm 0.0 W/m2
01:01 18.3 °C 13.2 °C 1007.3 hPa SSW 11.1 km/h 16.1 km/h 72% 0 mm 0.0 W/m2
01:06 18.2 °C 13.1 °C 1007.3 hPa South 16.3 km/h 17.7 km/h 72% 0 mm 0.0 W/m2
01:11 18.1 °C 13.2 °C 1007.3 hPa SSW 17.7 km/h 19.3 km/h 73% 0 mm 0.0 W/m2
01:16 18.1 °C 13.4 °C 1007.3 hPa SSW 16.3 km/h 19.3 km/h 74% 0 mm 0.0 W/m2
01:21 17.9 °C 13.2 °C 1007.3 hPa South 17.7 km/h 20.9 km/h 74% 0 mm 0.0 W/m2
01:26 17.8 °C 13.3 °C 1007.3 hPa SSW 16.3 km/h 19.3 km/h 75% 0 mm 0.0 W/m2
01:36 17.6 °C 13.3 °C 1007.3 hPa SSW 17.7 km/h 22.5 km/h 76% 0 mm 0.0 W/m2
01:41 17.6 °C 13.5 °C 1007.3 hPa SSW 16.3 km/h 20.9 km/h 77% 0 mm 0.0 W/m2
01:46 17.4 °C 13.3 °C 1007.3 hPa SSW 11.1 km/h 24.1 km/h 77% 0 mm 0.0 W/m2
01:56 17.3 °C 13.4 °C 1007.3 hPa SSW 16.3 km/h 22.5 km/h 78% 0 mm 0.0 W/m2
02:11 17.1 °C 13.4 °C 1007 hPa SSW 30.6 km/h 30.6 km/h 79% 0 mm 0.0 W/m2
02:16 17.1 °C 13.4 °C 1007 hPa SSW 19.5 km/h 27.4 km/h 79% 0 mm 0.0 W/m2
02:22 17 °C 13.3 °C 1007.3 hPa South 16.3 km/h 24.1 km/h 79% 0 mm 0.0 W/m2
02:31 16.8 °C 13.3 °C 1007 hPa South 19.5 km/h 27.4 km/h 80% 0 mm 0.0 W/m2
02:37 16.8 °C 13.3 °C 1007 hPa SSW 16.3 km/h 25.7 km/h 80% 0 mm 0.0 W/m2
02:47 16.7 °C 13.2 °C 1007 hPa SSW 17.7 km/h 17.7 km/h 80% 0 mm 0.0 W/m2
02:57 16.7 °C 13 °C 1007 hPa SSW 20.9 km/h 24.1 km/h 79% 0 mm 0.0 W/m2
03:02 16.7 °C 13 °C 1006.7 hPa South 20.9 km/h 22.5 km/h 79% 0 mm 0.0 W/m2
03:07 16.7 °C 13 °C 1006.7 hPa SSW 24.1 km/h 27.4 km/h 79% 0 mm 0.0 W/m2
03:12 16.7 °C 13 °C 1006.3 hPa South 22.7 km/h 27.4 km/h 79% 0 mm 0.0 W/m2
03:17 16.6 °C 12.9 °C 1006.7 hPa SSW 20.9 km/h 25.7 km/h 79% 0 mm 0.0 W/m2
03:27 16.6 °C 12.9 °C 1006.3 hPa SSW 19.5 km/h 27.4 km/h 79% 0 mm 0.0 W/m2
03:32 16.5 °C 12.8 °C 1006.3 hPa SSW 19.5 km/h 25.7 km/h 79% 0 mm 0.0 W/m2
03:37 16.5 °C 12.8 °C 1006.3 hPa South 25.9 km/h 25.9 km/h 79% 0 mm 0.0 W/m2
03:42 16.5 °C 12.8 °C 1006.3 hPa South 17.7 km/h 29 km/h 79% 0 mm 0.0 W/m2
03:52 16.4 °C 12.9 °C 1006.3 hPa South 27.4 km/h 27.4 km/h 80% 0 mm 0.0 W/m2
03:57 16.3 °C 12.8 °C 1006.3 hPa South 25.9 km/h 25.9 km/h 80% 0 mm 0.0 W/m2
04:02 16.2 °C 12.7 °C 1006.3 hPa South 24.1 km/h 29 km/h 80% 0 mm 0.0 W/m2
04:07 16.2 °C 12.6 °C 1006.3 hPa South 19.5 km/h 25.7 km/h 79% 0 mm 0.0 W/m2
04:12 16.2 °C 12.6 °C 1006.3 hPa South 16.3 km/h 29 km/h 79% 0 mm 0.0 W/m2
04:22 16.2 °C 12.6 °C 1006.3 hPa South 13 km/h 17.7 km/h 79% 0 mm 0.0 W/m2
04:27 16.2 °C 12.6 °C 1006.3 hPa South 17.7 km/h 24.1 km/h 79% 0 mm 0.0 W/m2
04:37 16.1 °C 12.5 °C 1006.3 hPa South 16.3 km/h 20.9 km/h 79% 0 mm 0.0 W/m2
04:42 16.2 °C 12.6 °C 1006.3 hPa SSE 16.3 km/h 20.9 km/h 79% 0 mm 0.0 W/m2
04:47 16.2 °C 12.7 °C 1006.3 hPa South 17.7 km/h 24.1 km/h 80% 0 mm 0.0 W/m2
04:52 16.2 °C 12.7 °C 1006.3 hPa South 19.5 km/h 24.1 km/h 80% 0 mm 0.0 W/m2
04:57 16.2 °C 12.7 °C 1006.3 hPa SSW 16.3 km/h 20.9 km/h 80% 0 mm 0.0 W/m2
05:07 16.2 °C 12.7 °C 1006.3 hPa SSW 17.7 km/h 24.1 km/h 80% 0 mm 0.0 W/m2
05:12 16.2 °C 12.6 °C 1006.3 hPa SSE 17.7 km/h 19.3 km/h 79% 0 mm 0.0 W/m2
05:17 16.2 °C 12.6 °C 1006.3 hPa SSW 17.7 km/h 22.5 km/h 79% 0 mm 0.0 W/m2
05:22 16.1 °C 12.6 °C 1006.7 hPa SSW 17.7 km/h 20.9 km/h 80% 0 mm 0.0 W/m2
05:27 16.1 °C 12.6 °C 1006.7 hPa SSW 13 km/h 17.7 km/h 80% 0 mm 0.0 W/m2
05:38 16 °C 12.6 °C 1006.7 hPa South 16.3 km/h 20.9 km/h 80% 0 mm 0.0 W/m2
05:43 16 °C 12.7 °C 1006.7 hPa South 17.7 km/h 22.5 km/h 81% 0 mm 0.0 W/m2
05:48 15.9 °C 12.6 °C 1006.7 hPa South 17.7 km/h 27.4 km/h 81% 0 mm 0.0 W/m2
05:53 16 °C 12.7 °C 1007 hPa South 13 km/h 22.5 km/h 81% 0 mm 0.0 W/m2
05:58 16 °C 12.7 °C 1007 hPa South 16.3 km/h 19.3 km/h 81% 0 mm 0.0 W/m2
06:03 16 °C 12.7 °C 1007 hPa SSW 16.3 km/h 19.3 km/h 81% 0 mm 0.0 W/m2
06:08 16.1 °C 12.6 °C 1007 hPa South 16.3 km/h 24.1 km/h 80% 0 mm 0.0 W/m2
06:18 15.9 °C 12.6 °C 1007 hPa South 16.3 km/h 20.9 km/h 81% 0 mm 0.0 W/m2
06:23 16 °C 12.7 °C 1007 hPa South 14.3 km/h 17.7 km/h 81% 0 mm 5.0 W/m2
06:33 15.9 °C 12.6 °C 1007 hPa South 13 km/h 16.1 km/h 81% 0 mm 16.0 W/m2
06:38 16 °C 12.7 °C 1007 hPa South 13 km/h 16.1 km/h 81% 0 mm 26.0 W/m2
06:48 16.2 °C 12.7 °C 1007 hPa South 14.3 km/h 16.1 km/h 80% 0 mm 35.0 W/m2
06:53 16.2 °C 12.7 °C 1007 hPa South 11.1 km/h 20.9 km/h 80% 0 mm 49.0 W/m2
06:58 16.3 °C 12.8 °C 1007 hPa South 20.9 km/h 25.7 km/h 80% 0 mm 72.0 W/m2
07:08 16.6 °C 12.9 °C 1007.3 hPa South 19.5 km/h 20.9 km/h 79% 0 mm 114.0 W/m2
07:13 16.7 °C 13 °C 1007.3 hPa South 13 km/h 19.3 km/h 79% 0 mm 95.0 W/m2
07:18 16.7 °C 13 °C 1007.3 hPa South 16.3 km/h 24.1 km/h 79% 0 mm 155.0 W/m2
07:28 16.9 °C 13 °C 1007.3 hPa South 14.3 km/h 17.7 km/h 78% 0 mm 193.0 W/m2
07:33 17.1 °C 13.2 °C 1007.3 hPa SSW 19.5 km/h 20.9 km/h 78% 0 mm 227.0 W/m2
07:39 17.2 °C 13.1 °C 1007.3 hPa SSW 17.7 km/h 19.3 km/h 77% 0 mm 227.0 W/m2
07:49 17.4 °C 13.1 °C 1007.3 hPa South 17.7 km/h 22.5 km/h 76% 0 mm 258.0 W/m2
07:54 17.4 °C 13.1 °C 1007.3 hPa SSW 16.3 km/h 20.9 km/h 76% 0 mm 281.0 W/m2
08:04 17.7 °C 13.2 °C 1007.3 hPa South 14.3 km/h 17.7 km/h 75% 0 mm 357.0 W/m2
08:10 17.9 °C 13.2 °C 1007.3 hPa South 17.7 km/h 22.5 km/h 74% 0 mm 336.0 W/m2
08:17 17.9 °C 13.2 °C 1007.3 hPa South 13 km/h 20.9 km/h 74% 0 mm 348.0 W/m2
08:29 18.1 °C 13.2 °C 1007.3 hPa SSE 14.3 km/h 19.3 km/h 73% 0 mm 381.0 W/m2
08:59 18.9 °C 13.3 °C 1007.7 hPa South 13 km/h 16.1 km/h 70% 0 mm 483.0 W/m2
09:43 20.3 °C 13.3 °C 1007.3 hPa South 13 km/h 16.1 km/h 64% 0 mm 635.0 W/m2
09:52 20.8 °C 13.5 °C 1007.3 hPa South 14.3 km/h 14.5 km/h 63% 0 mm 666.0 W/m2
10:02 21.2 °C 13.6 °C 1007.3 hPa SSW 14.3 km/h 14.5 km/h 62% 0 mm 698.0 W/m2
10:14 21.3 °C 13.2 °C 1007.3 hPa SSW 6.4 km/h 9.7 km/h 60% 0 mm 724.0 W/m2
10:23 21.7 °C 13.3 °C 1007.3 hPa SSW 11.1 km/h 16.1 km/h 59% 0 mm 754.0 W/m2
10:32 22.3 °C 13.4 °C 1007 hPa SSW 7.9 km/h 16.1 km/h 57% 0 mm 773.0 W/m2
10:41 22.6 °C 13.4 °C 1007 hPa SSW 9.7 km/h 14.5 km/h 56% 0 mm 805.0 W/m2
10:50 23.1 °C 13.3 °C 1006.7 hPa SSW 7.9 km/h 9.7 km/h 54% 0 mm 824.0 W/m2
11:10 23.6 °C 12.9 °C 1006.7 hPa SW 11.1 km/h 16.1 km/h 51% 0 mm 861.0 W/m2
11:26 23.9 °C 12.8 °C 1006.3 hPa SW 6.4 km/h 11.3 km/h 50% 0 mm 888.0 W/m2
11:41 24.9 °C 12.5 °C 1006.3 hPa SW 7.9 km/h 11.3 km/h 46% 0 mm 914.0 W/m2
11:57 25.2 °C 12.4 °C 1006 hPa SW 9.7 km/h 14.5 km/h 45% 0 mm 933.0 W/m2
12:11 25.5 °C 12.4 °C 1006 hPa SSW 11.1 km/h 17.7 km/h 44% 0 mm 951.0 W/m2
12:26 26.2 °C 12.6 °C 1005.6 hPa SSW 14.3 km/h 19.3 km/h 43% 0 mm 962.0 W/m2
12:41 26.6 °C 12.3 °C 1005.6 hPa SSW 4.7 km/h 16.1 km/h 41% 0 mm 969.0 W/m2
12:55 26.9 °C 12.2 °C 1005.6 hPa SW 11.1 km/h 19.3 km/h 40% 0 mm 976.0 W/m2
13:21 27.4 °C 12.2 °C 1005.3 hPa SSW 11.1 km/h 17.7 km/h 39% 0 mm 972.0 W/m2
13:35 28.3 °C 11.8 °C 1005 hPa SW 19.5 km/h 19.5 km/h 36% 0 mm 970.0 W/m2
13:51 28.6 °C 11.6 °C 1004.6 hPa SSW 13 km/h 14.5 km/h 35% 0 mm 960.0 W/m2
14:06 28.9 °C 9.6 °C 1004.6 hPa Calm     30% 0 mm 946.0 W/m2
14:21 29.6 °C 10.7 °C 1004.3 hPa South 13 km/h 13 km/h 31% 0 mm 932.0 W/m2
14:37 29.8 °C 10.4 °C 1004.3 hPa SW 19.5 km/h 25.7 km/h 30% 0 mm 904.0 W/m2
14:51 30.2 °C 9.7 °C 1003.9 hPa SSW 16.3 km/h 22.5 km/h 28% 0 mm 879.0 W/m2
15:06 30.4 °C 9.3 °C 1003.9 hPa SSW 13 km/h 19.3 km/h 27% 0 mm 849.0 W/m2
15:16 30.5 °C 8.8 °C 1003.6 hPa SSW 14.3 km/h 24.1 km/h 26% 0 mm 831.0 W/m2
15:32 30.6 °C 9.5 °C 1003.6 hPa South 14.3 km/h 17.7 km/h 27% 0 mm 793.0 W/m2
15:47 31.2 °C 8.2 °C 1003.3 hPa South 14.3 km/h 20.9 km/h 24% 0 mm 758.0 W/m2
16:02 31.3 °C 6.4 °C 1002.9 hPa SSW 19.5 km/h 22.5 km/h 21% 0 mm 721.0 W/m2
16:17 31.9 °C 5.4 °C 1002.9 hPa SSW 11.1 km/h 20.9 km/h 19% 0 mm 677.0 W/m2
16:47 31.8 °C 4.6 °C 1002.6 hPa SSW 17.7 km/h 27.4 km/h 18% 0 mm 587.0 W/m2
17:02 31.8 °C 2.9 °C 1002.6 hPa SSW 13 km/h 24.1 km/h 16% 0 mm 534.0 W/m2
17:17 32 °C 2.1 °C 1002.3 hPa SSW 16.3 km/h 20.9 km/h 15% 0 mm 485.0 W/m2
17:32 32 °C 1.2 °C 1002.3 hPa South 14.3 km/h 20.9 km/h 14% 0 mm 434.0 W/m2
17:48 32.1 °C 3.1 °C 1002.3 hPa South 20.9 km/h 22.5 km/h 16% 0 mm 376.0 W/m2
18:02 32.1 °C 4 °C 1002.3 hPa SSW 20.9 km/h 29 km/h 17% 0 mm 320.0 W/m2
18:33 31.9 °C 3.8 °C 1002.3 hPa SSW 17.7 km/h 22.5 km/h 17% 0 mm 209.0 W/m2
18:48 31.7 °C 4.5 °C 1002.3 hPa SSW 22.7 km/h 24.1 km/h 18% 0 mm 141.0 W/m2
Canyon Roadhouse, Fishriver Canyon, Namibia
Compliments of Weather Underground - 2.25 mb